sensor_id;sensor_type;location;lat;lon;timestamp;temperature;humidity
25280;DHT22;13225;47.804;12.116;2022-08-19T00:01:42;18.40;99.90
25280;DHT22;13225;47.804;12.116;2022-08-19T00:04:11;18.40;99.90
25280;DHT22;13225;47.804;12.116;2022-08-19T00:06:38;18.30;99.90
25280;DHT22;13225;47.804;12.116;2022-08-19T00:09:06;18.20;99.90
25280;DHT22;13225;47.804;12.116;2022-08-19T00:11:34;18.20;99.90
25280;DHT22;13225;47.804;12.116;2022-08-19T00:14:01;18.10;99.90
25280;DHT22;13225;47.804;12.116;2022-08-19T00:16:27;18.10;99.90
25280;DHT22;13225;47.804;12.116;2022-08-19T00:18:54;18.10;99.90
25280;DHT22;13225;47.804;12.116;2022-08-19T00:21:21;18.10;99.90
25280;DHT22;13225;47.804;12.116;2022-08-19T00:23:47;18.00;99.90
25280;DHT22;13225;47.804;12.116;2022-08-19T00:26:13;18.10;99.90
25280;DHT22;13225;47.804;12.116;2022-08-19T00:28:39;18.20;99.90
25280;DHT22;13225;47.804;12.116;2022-08-19T00:31:07;18.30;99.90
25280;DHT22;13225;47.804;12.116;2022-08-19T00:33:33;18.40;99.90
25280;DHT22;13225;47.804;12.116;2022-08-19T00:36:03;18.40;99.90
25280;DHT22;13225;47.804;12.116;2022-08-19T00:38:30;18.50;99.90
25280;DHT22;13225;47.804;12.116;2022-08-19T00:40:56;18.50;99.90
25280;DHT22;13225;47.804;12.116;2022-08-19T00:43:23;18.50;99.90
25280;DHT22;13225;47.804;12.116;2022-08-19T00:45:49;18.60;99.90
25280;DHT22;13225;47.804;12.116;2022-08-19T00:48:16;18.60;99.90
25280;DHT22;13225;47.804;12.116;2022-08-19T00:50:43;18.50;99.90
25280;DHT22;13225;47.804;12.116;2022-08-19T00:53:11;18.60;99.90
25280;DHT22;13225;47.804;12.116;2022-08-19T00:55:37;18.60;99.90
25280;DHT22;13225;47.804;12.116;2022-08-19T00:58:15;18.60;99.90
25280;DHT22;13225;47.804;12.116;2022-08-19T01:00:42;18.70;99.90
25280;DHT22;13225;47.804;12.116;2022-08-19T01:03:10;18.70;99.90
25280;DHT22;13225;47.804;12.116;2022-08-19T01:05:37;18.80;99.90
25280;DHT22;13225;47.804;12.116;2022-08-19T01:08:06;18.80;99.90
25280;DHT22;13225;47.804;12.116;2022-08-19T01:10:42;18.80;99.90
25280;DHT22;13225;47.804;12.116;2022-08-19T01:13:09;18.80;99.90
25280;DHT22;13225;47.804;12.116;2022-08-19T01:16:05;18.80;99.90
25280;DHT22;13225;47.804;12.116;2022-08-19T01:18:35;18.80;99.90
25280;DHT22;13225;47.804;12.116;2022-08-19T01:21:09;18.80;99.90
25280;DHT22;13225;47.804;12.116;2022-08-19T01:23:35;18.90;99.90
25280;DHT22;13225;47.804;12.116;2022-08-19T01:26:13;18.90;99.90
25280;DHT22;13225;47.804;12.116;2022-08-19T01:28:41;18.90;99.90
25280;DHT22;13225;47.804;12.116;2022-08-19T01:31:10;18.80;99.90
25280;DHT22;13225;47.804;12.116;2022-08-19T01:33:37;18.70;99.90
25280;DHT22;13225;47.804;12.116;2022-08-19T01:36:09;18.60;99.90
25280;DHT22;13225;47.804;12.116;2022-08-19T01:38:38;18.60;99.90
25280;DHT22;13225;47.804;12.116;2022-08-19T01:41:04;18.60;99.90
25280;DHT22;13225;47.804;12.116;2022-08-19T01:43:31;18.70;99.90
25280;DHT22;13225;47.804;12.116;2022-08-19T01:45:57;18.70;99.90
25280;DHT22;13225;47.804;12.116;2022-08-19T01:48:23;18.70;99.90
25280;DHT22;13225;47.804;12.116;2022-08-19T01:50:49;18.60;99.90
25280;DHT22;13225;47.804;12.116;2022-08-19T01:53:15;18.60;99.90
25280;DHT22;13225;47.804;12.116;2022-08-19T01:55:42;18.50;99.90
25280;DHT22;13225;47.804;12.116;2022-08-19T01:58:15;18.50;99.90
25280;DHT22;13225;47.804;12.116;2022-08-19T02:00:42;18.40;99.90
25280;DHT22;13225;47.804;12.116;2022-08-19T02:03:09;18.40;99.90
25280;DHT22;13225;47.804;12.116;2022-08-19T02:05:35;18.40;99.90
25280;DHT22;13225;47.804;12.116;2022-08-19T02:08:00;18.40;99.90
25280;DHT22;13225;47.804;12.116;2022-08-19T02:10:26;18.30;99.90
25280;DHT22;13225;47.804;12.116;2022-08-19T02:12:52;18.30;99.90
25280;DHT22;13225;47.804;12.116;2022-08-19T02:15:19;18.40;99.90
25280;DHT22;13225;47.804;12.116;2022-08-19T02:17:45;18.40;99.90
25280;DHT22;13225;47.804;12.116;2022-08-19T02:20:12;18.40;99.90
25280;DHT22;13225;47.804;12.116;2022-08-19T02:22:40;18.50;99.90
25280;DHT22;13225;47.804;12.116;2022-08-19T02:25:11;18.50;99.90
25280;DHT22;13225;47.804;12.116;2022-08-19T02:27:38;18.60;99.90
25280;DHT22;13225;47.804;12.116;2022-08-19T02:30:05;18.60;99.90
25280;DHT22;13225;47.804;12.116;2022-08-19T02:32:31;18.70;99.90
25280;DHT22;13225;47.804;12.116;2022-08-19T02:34:57;18.80;99.90
25280;DHT22;13225;47.804;12.116;2022-08-19T02:37:23;19.00;99.90
25280;DHT22;13225;47.804;12.116;2022-08-19T02:40:07;19.00;99.90
25280;DHT22;13225;47.804;12.116;2022-08-19T02:42:33;19.10;99.90
25280;DHT22;13225;47.804;12.116;2022-08-19T02:44:59;19.10;99.90
25280;DHT22;13225;47.804;12.116;2022-08-19T02:47:25;19.10;99.90
25280;DHT22;13225;47.804;12.116;2022-08-19T02:49:51;19.10;99.90
25280;DHT22;13225;47.804;12.116;2022-08-19T02:52:16;19.10;99.90
25280;DHT22;13225;47.804;12.116;2022-08-19T02:54:43;19.20;99.90
25280;DHT22;13225;47.804;12.116;2022-08-19T02:57:09;19.20;99.90
25280;DHT22;13225;47.804;12.116;2022-08-19T02:59:35;19.20;99.90
25280;DHT22;13225;47.804;12.116;2022-08-19T03:02:01;19.10;99.90
25280;DHT22;13225;47.804;12.116;2022-08-19T03:04:26;19.10;99.90
25280;DHT22;13225;47.804;12.116;2022-08-19T03:06:52;19.10;99.90
25280;DHT22;13225;47.804;12.116;2022-08-19T03:09:19;19.00;99.90
25280;DHT22;13225;47.804;12.116;2022-08-19T03:11:45;19.00;99.90
25280;DHT22;13225;47.804;12.116;2022-08-19T03:14:12;19.00;99.90
25280;DHT22;13225;47.804;12.116;2022-08-19T03:16:44;19.00;99.90
25280;DHT22;13225;47.804;12.116;2022-08-19T03:19:10;19.00;99.90
25280;DHT22;13225;47.804;12.116;2022-08-19T03:21:36;19.00;99.90
25280;DHT22;13225;47.804;12.116;2022-08-19T03:24:05;19.00;99.90
25280;DHT22;13225;47.804;12.116;2022-08-19T03:26:31;19.00;99.90
25280;DHT22;13225;47.804;12.116;2022-08-19T03:28:57;19.10;99.90
25280;DHT22;13225;47.804;12.116;2022-08-19T03:31:25;19.00;99.90
25280;DHT22;13225;47.804;12.116;2022-08-19T03:33:51;19.00;99.90
25280;DHT22;13225;47.804;12.116;2022-08-19T03:36:20;19.10;99.90
25280;DHT22;13225;47.804;12.116;2022-08-19T03:38:49;19.10;99.90
25280;DHT22;13225;47.804;12.116;2022-08-19T03:41:19;19.10;99.90
25280;DHT22;13225;47.804;12.116;2022-08-19T03:43:46;19.10;99.90
25280;DHT22;13225;47.804;12.116;2022-08-19T03:46:22;19.20;99.90
25280;DHT22;13225;47.804;12.116;2022-08-19T03:48:51;19.10;99.90
25280;DHT22;13225;47.804;12.116;2022-08-19T03:51:23;19.10;99.90
25280;DHT22;13225;47.804;12.116;2022-08-19T03:53:51;19.10;99.90
25280;DHT22;13225;47.804;12.116;2022-08-19T03:56:16;19.10;99.90
25280;DHT22;13225;47.804;12.116;2022-08-19T03:58:42;19.10;99.90
25280;DHT22;13225;47.804;12.116;2022-08-19T04:01:09;19.10;99.90
25280;DHT22;13225;47.804;12.116;2022-08-19T04:03:35;19.10;99.90
25280;DHT22;13225;47.804;12.116;2022-08-19T04:06:25;19.10;99.90
25280;DHT22;13225;47.804;12.116;2022-08-19T04:08:53;19.10;99.90
25280;DHT22;13225;47.804;12.116;2022-08-19T04:11:24;19.10;99.90
25280;DHT22;13225;47.804;12.116;2022-08-19T04:13:51;19.20;99.90
25280;DHT22;13225;47.804;12.116;2022-08-19T04:16:22;19.20;99.90
25280;DHT22;13225;47.804;12.116;2022-08-19T04:18:48;19.10;99.90
25280;DHT22;13225;47.804;12.116;2022-08-19T04:21:20;19.00;99.90
25280;DHT22;13225;47.804;12.116;2022-08-19T04:23:47;19.00;99.90
25280;DHT22;13225;47.804;12.116;2022-08-19T04:26:18;18.90;99.90
25280;DHT22;13225;47.804;12.116;2022-08-19T04:28:45;18.90;99.90
25280;DHT22;13225;47.804;12.116;2022-08-19T04:31:19;18.90;99.90
25280;DHT22;13225;47.804;12.116;2022-08-19T04:33:45;18.90;99.90
25280;DHT22;13225;47.804;12.116;2022-08-19T04:36:23;18.80;99.90
25280;DHT22;13225;47.804;12.116;2022-08-19T04:38:52;18.70;99.90
25280;DHT22;13225;47.804;12.116;2022-08-19T04:41:18;18.70;99.90
25280;DHT22;13225;47.804;12.116;2022-08-19T04:44:02;18.70;99.90
25280;DHT22;13225;47.804;12.116;2022-08-19T04:46:28;18.60;99.90
25280;DHT22;13225;47.804;12.116;2022-08-19T04:48:56;18.50;99.90
25280;DHT22;13225;47.804;12.116;2022-08-19T04:51:23;18.60;99.90
25280;DHT22;13225;47.804;12.116;2022-08-19T04:53:48;18.60;99.90
25280;DHT22;13225;47.804;12.116;2022-08-19T04:56:16;18.50;99.90
25280;DHT22;13225;47.804;12.116;2022-08-19T04:58:44;18.60;99.90
25280;DHT22;13225;47.804;12.116;2022-08-19T05:01:17;18.50;99.90
25280;DHT22;13225;47.804;12.116;2022-08-19T05:03:43;18.60;99.90
25280;DHT22;13225;47.804;12.116;2022-08-19T05:06:11;18.60;99.90
25280;DHT22;13225;47.804;12.116;2022-08-19T05:08:39;18.60;99.90
25280;DHT22;13225;47.804;12.116;2022-08-19T05:11:20;18.60;99.90
25280;DHT22;13225;47.804;12.116;2022-08-19T05:13:47;18.60;99.90
25280;DHT22;13225;47.804;12.116;2022-08-19T05:16:15;18.60;99.90
25280;DHT22;13225;47.804;12.116;2022-08-19T05:18:41;18.50;99.90
25280;DHT22;13225;47.804;12.116;2022-08-19T05:21:27;18.50;99.90
25280;DHT22;13225;47.804;12.116;2022-08-19T05:24:12;18.50;99.90
25280;DHT22;13225;47.804;12.116;2022-08-19T05:26:41;18.60;99.90
25280;DHT22;13225;47.804;12.116;2022-08-19T05:29:07;18.60;99.90
25280;DHT22;13225;47.804;12.116;2022-08-19T05:31:34;18.60;99.90
25280;DHT22;13225;47.804;12.116;2022-08-19T05:34:01;18.60;99.90
25280;DHT22;13225;47.804;12.116;2022-08-19T05:36:28;18.50;99.90
25280;DHT22;13225;47.804;12.116;2022-08-19T05:38:54;18.50;99.90
25280;DHT22;13225;47.804;12.116;2022-08-19T05:41:21;18.50;99.90
25280;DHT22;13225;47.804;12.116;2022-08-19T05:43:56;18.40;99.90
25280;DHT22;13225;47.804;12.116;2022-08-19T05:46:22;18.40;99.90
25280;DHT22;13225;47.804;12.116;2022-08-19T05:48:48;18.40;99.90
25280;DHT22;13225;47.804;12.116;2022-08-19T05:51:15;18.20;99.90
25280;DHT22;13225;47.804;12.116;2022-08-19T05:53:42;18.20;99.90
25280;DHT22;13225;47.804;12.116;2022-08-19T05:56:11;18.10;99.90
25280;DHT22;13225;47.804;12.116;2022-08-19T05:58:37;18.20;99.90
25280;DHT22;13225;47.804;12.116;2022-08-19T06:01:09;18.20;99.90
25280;DHT22;13225;47.804;12.116;2022-08-19T06:03:35;18.20;99.90
25280;DHT22;13225;47.804;12.116;2022-08-19T06:06:03;18.20;99.90
25280;DHT22;13225;47.804;12.116;2022-08-19T06:08:29;18.10;99.90
25280;DHT22;13225;47.804;12.116;2022-08-19T06:10:55;18.20;99.90
25280;DHT22;13225;47.804;12.116;2022-08-19T06:13:22;18.20;99.90
25280;DHT22;13225;47.804;12.116;2022-08-19T06:15:50;18.20;99.90
25280;DHT22;13225;47.804;12.116;2022-08-19T06:18:16;18.30;99.90
25280;DHT22;13225;47.804;12.116;2022-08-19T06:20:42;18.20;99.90
25280;DHT22;13225;47.804;12.116;2022-08-19T06:23:08;18.20;99.90
25280;DHT22;13225;47.804;12.116;2022-08-19T06:25:35;18.30;99.90
25280;DHT22;13225;47.804;12.116;2022-08-19T06:28:01;18.30;99.90
25280;DHT22;13225;47.804;12.116;2022-08-19T06:30:27;18.40;99.90
25280;DHT22;13225;47.804;12.116;2022-08-19T06:32:53;18.50;99.90
25280;DHT22;13225;47.804;12.116;2022-08-19T06:35:19;18.50;99.90
25280;DHT22;13225;47.804;12.116;2022-08-19T06:37:45;18.50;99.90
25280;DHT22;13225;47.804;12.116;2022-08-19T06:40:11;18.60;99.90
25280;DHT22;13225;47.804;12.116;2022-08-19T06:42:37;18.70;99.90
25280;DHT22;13225;47.804;12.116;2022-08-19T06:45:05;18.80;99.90
25280;DHT22;13225;47.804;12.116;2022-08-19T06:47:32;18.80;99.90
25280;DHT22;13225;47.804;12.116;2022-08-19T06:49:59;18.90;99.90
25280;DHT22;13225;47.804;12.116;2022-08-19T06:52:33;19.00;99.90
25280;DHT22;13225;47.804;12.116;2022-08-19T06:54:59;19.10;99.90
25280;DHT22;13225;47.804;12.116;2022-08-19T06:57:26;19.20;99.90
25280;DHT22;13225;47.804;12.116;2022-08-19T06:59:52;19.30;99.90
25280;DHT22;13225;47.804;12.116;2022-08-19T07:02:19;19.60;99.90
25280;DHT22;13225;47.804;12.116;2022-08-19T07:04:45;19.80;99.90
25280;DHT22;13225;47.804;12.116;2022-08-19T07:07:14;19.90;99.90
25280;DHT22;13225;47.804;12.116;2022-08-19T07:09:42;20.10;99.90
25280;DHT22;13225;47.804;12.116;2022-08-19T07:12:11;20.20;99.90
25280;DHT22;13225;47.804;12.116;2022-08-19T07:14:38;20.30;99.90
25280;DHT22;13225;47.804;12.116;2022-08-19T07:17:06;20.20;99.90
25280;DHT22;13225;47.804;12.116;2022-08-19T07:19:33;20.30;99.90
25280;DHT22;13225;47.804;12.116;2022-08-19T07:22:02;20.40;99.90
25280;DHT22;13225;47.804;12.116;2022-08-19T07:24:29;20.60;99.90
25280;DHT22;13225;47.804;12.116;2022-08-19T07:26:57;19.70;99.90
25280;DHT22;13225;47.804;12.116;2022-08-19T07:29:26;19.80;99.90
25280;DHT22;13225;47.804;12.116;2022-08-19T07:31:53;19.90;99.90
25280;DHT22;13225;47.804;12.116;2022-08-19T07:34:22;20.00;99.90
25280;DHT22;13225;47.804;12.116;2022-08-19T07:36:49;20.10;99.90
25280;DHT22;13225;47.804;12.116;2022-08-19T07:39:18;20.30;99.90
25280;DHT22;13225;47.804;12.116;2022-08-19T07:41:45;20.50;99.90
25280;DHT22;13225;47.804;12.116;2022-08-19T07:44:12;20.60;99.90
25280;DHT22;13225;47.804;12.116;2022-08-19T07:46:41;20.60;99.90
25280;DHT22;13225;47.804;12.116;2022-08-19T07:49:07;20.80;99.90
25280;DHT22;13225;47.804;12.116;2022-08-19T07:51:34;20.90;99.90
25280;DHT22;13225;47.804;12.116;2022-08-19T07:54:00;20.90;99.90
25280;DHT22;13225;47.804;12.116;2022-08-19T07:56:26;20.40;99.90
25280;DHT22;13225;47.804;12.116;2022-08-19T07:58:52;20.60;99.90
25280;DHT22;13225;47.804;12.116;2022-08-19T08:01:25;20.80;99.90
25280;DHT22;13225;47.804;12.116;2022-08-19T08:03:52;20.60;99.90
25280;DHT22;13225;47.804;12.116;2022-08-19T08:06:36;20.30;99.90
25280;DHT22;13225;47.804;12.116;2022-08-19T08:09:33;20.20;99.90
25280;DHT22;13225;47.804;12.116;2022-08-19T08:12:04;20.60;99.90
25280;DHT22;13225;47.804;12.116;2022-08-19T08:14:52;20.70;99.90
25280;DHT22;13225;47.804;12.116;2022-08-19T08:17:21;20.70;99.90
25280;DHT22;13225;47.804;12.116;2022-08-19T08:19:48;21.00;99.90
25280;DHT22;13225;47.804;12.116;2022-08-19T08:22:17;20.80;99.90
25280;DHT22;13225;47.804;12.116;2022-08-19T08:25:10;20.80;99.90
25280;DHT22;13225;47.804;12.116;2022-08-19T08:27:40;21.00;99.90
25280;DHT22;13225;47.804;12.116;2022-08-19T08:30:11;21.30;99.90
25280;DHT22;13225;47.804;12.116;2022-08-19T08:32:39;21.50;99.90
25280;DHT22;13225;47.804;12.116;2022-08-19T08:35:07;21.60;99.90
25280;DHT22;13225;47.804;12.116;2022-08-19T08:37:33;21.80;99.90
25280;DHT22;13225;47.804;12.116;2022-08-19T08:40:02;21.80;99.90
25280;DHT22;13225;47.804;12.116;2022-08-19T08:42:34;21.80;99.90
25280;DHT22;13225;47.804;12.116;2022-08-19T08:45:03;21.90;99.90
25280;DHT22;13225;47.804;12.116;2022-08-19T08:47:35;22.00;99.90
25280;DHT22;13225;47.804;12.116;2022-08-19T08:50:15;22.20;99.90
25280;DHT22;13225;47.804;12.116;2022-08-19T08:52:45;22.20;99.90
25280;DHT22;13225;47.804;12.116;2022-08-19T08:55:15;22.20;99.90
25280;DHT22;13225;47.804;12.116;2022-08-19T08:57:57;22.40;99.90
25280;DHT22;13225;47.804;12.116;2022-08-19T09:00:31;22.50;99.90
25280;DHT22;13225;47.804;12.116;2022-08-19T09:02:57;22.30;99.90
25280;DHT22;13225;47.804;12.116;2022-08-19T09:05:30;22.30;99.90
25280;DHT22;13225;47.804;12.116;2022-08-19T09:10:53;21.90;99.90
25280;DHT22;13225;47.804;12.116;2022-08-19T09:13:27;22.80;99.90
25280;DHT22;13225;47.804;12.116;2022-08-19T09:16:08;22.90;99.90
25280;DHT22;13225;47.804;12.116;2022-08-19T09:18:45;23.10;99.90
25280;DHT22;13225;47.804;12.116;2022-08-19T09:21:13;23.40;99.90
25280;DHT22;13225;47.804;12.116;2022-08-19T09:23:40;23.30;99.90
25280;DHT22;13225;47.804;12.116;2022-08-19T09:26:08;22.50;99.90
25280;DHT22;13225;47.804;12.116;2022-08-19T09:28:34;23.30;99.90
25280;DHT22;13225;47.804;12.116;2022-08-19T09:31:00;23.40;99.90
25280;DHT22;13225;47.804;12.116;2022-08-19T09:33:26;23.40;99.90
25280;DHT22;13225;47.804;12.116;2022-08-19T09:36:02;23.70;99.90
25280;DHT22;13225;47.804;12.116;2022-08-19T09:38:28;24.00;99.90
25280;DHT22;13225;47.804;12.116;2022-08-19T09:40:54;24.20;99.90
25280;DHT22;13225;47.804;12.116;2022-08-19T09:43:20;24.20;99.90
25280;DHT22;13225;47.804;12.116;2022-08-19T09:45:45;24.10;99.90
25280;DHT22;13225;47.804;12.116;2022-08-19T09:48:11;24.30;99.90
25280;DHT22;13225;47.804;12.116;2022-08-19T09:50:39;24.00;99.90
25280;DHT22;13225;47.804;12.116;2022-08-19T09:53:05;23.70;99.90
25280;DHT22;13225;47.804;12.116;2022-08-19T09:55:31;23.80;99.90
25280;DHT22;13225;47.804;12.116;2022-08-19T09:57:57;23.50;99.90
25280;DHT22;13225;47.804;12.116;2022-08-19T10:00:23;23.70;99.90
25280;DHT22;13225;47.804;12.116;2022-08-19T10:02:49;23.50;99.90
25280;DHT22;13225;47.804;12.116;2022-08-19T10:05:14;22.60;99.90
25280;DHT22;13225;47.804;12.116;2022-08-19T10:07:58;23.20;99.90
25280;DHT22;13225;47.804;12.116;2022-08-19T10:10:26;23.50;99.90
25280;DHT22;13225;47.804;12.116;2022-08-19T10:12:52;24.00;99.90
25280;DHT22;13225;47.804;12.116;2022-08-19T10:15:17;24.30;99.90
25280;DHT22;13225;47.804;12.116;2022-08-19T10:17:46;24.10;99.90
25280;DHT22;13225;47.804;12.116;2022-08-19T10:20:12;23.70;99.90
25280;DHT22;13225;47.804;12.116;2022-08-19T10:22:38;23.90;99.90
25280;DHT22;13225;47.804;12.116;2022-08-19T10:25:05;23.90;99.90
25280;DHT22;13225;47.804;12.116;2022-08-19T10:27:30;24.20;99.90
25280;DHT22;13225;47.804;12.116;2022-08-19T10:29:56;24.40;99.90
25280;DHT22;13225;47.804;12.116;2022-08-19T10:32:22;24.50;99.90
25280;DHT22;13225;47.804;12.116;2022-08-19T10:34:48;24.70;99.90
25280;DHT22;13225;47.804;12.116;2022-08-19T10:37:16;24.70;99.90
25280;DHT22;13225;47.804;12.116;2022-08-19T10:39:45;24.60;99.90
25280;DHT22;13225;47.804;12.116;2022-08-19T10:42:13;23.60;99.90
25280;DHT22;13225;47.804;12.116;2022-08-19T10:44:39;23.60;99.90
25280;DHT22;13225;47.804;12.116;2022-08-19T10:47:05;24.30;99.90
25280;DHT22;13225;47.804;12.116;2022-08-19T10:49:31;24.30;99.90
25280;DHT22;13225;47.804;12.116;2022-08-19T10:52:17;24.00;99.90
25280;DHT22;13225;47.804;12.116;2022-08-19T10:55:05;24.00;99.90
25280;DHT22;13225;47.804;12.116;2022-08-19T10:57:49;23.80;99.90
25280;DHT22;13225;47.804;12.116;2022-08-19T11:00:16;24.60;99.90
25280;DHT22;13225;47.804;12.116;2022-08-19T11:02:42;25.50;99.90
25280;DHT22;13225;47.804;12.116;2022-08-19T11:05:08;25.50;99.90
25280;DHT22;13225;47.804;12.116;2022-08-19T11:07:37;25.70;99.90
25280;DHT22;13225;47.804;12.116;2022-08-19T11:10:04;26.00;99.90
25280;DHT22;13225;47.804;12.116;2022-08-19T11:12:30;25.00;99.90
25280;DHT22;13225;47.804;12.116;2022-08-19T11:14:56;24.30;99.90
25280;DHT22;13225;47.804;12.116;2022-08-19T11:17:22;24.40;99.90
25280;DHT22;13225;47.804;12.116;2022-08-19T11:19:49;24.60;99.90
25280;DHT22;13225;47.804;12.116;2022-08-19T11:22:15;24.60;99.90
25280;DHT22;13225;47.804;12.116;2022-08-19T11:24:42;24.40;99.90
25280;DHT22;13225;47.804;12.116;2022-08-19T11:27:09;24.20;99.90
25280;DHT22;13225;47.804;12.116;2022-08-19T11:29:37;24.20;99.90
25280;DHT22;13225;47.804;12.116;2022-08-19T11:32:05;24.30;99.90
25280;DHT22;13225;47.804;12.116;2022-08-19T11:34:31;24.50;99.90
25280;DHT22;13225;47.804;12.116;2022-08-19T11:36:57;24.80;99.90
25280;DHT22;13225;47.804;12.116;2022-08-19T11:39:26;23.90;99.90
25280;DHT22;13225;47.804;12.116;2022-08-19T11:41:51;24.10;99.90
25280;DHT22;13225;47.804;12.116;2022-08-19T11:44:20;24.80;99.90
25280;DHT22;13225;47.804;12.116;2022-08-19T11:46:46;25.30;99.90
25280;DHT22;13225;47.804;12.116;2022-08-19T11:49:17;25.40;99.90
25280;DHT22;13225;47.804;12.116;2022-08-19T11:51:44;25.10;99.90
25280;DHT22;13225;47.804;12.116;2022-08-19T11:54:12;25.00;99.90
25280;DHT22;13225;47.804;12.116;2022-08-19T11:56:38;25.30;99.90
25280;DHT22;13225;47.804;12.116;2022-08-19T11:59:04;25.00;99.90
25280;DHT22;13225;47.804;12.116;2022-08-19T12:01:30;24.90;99.90
25280;DHT22;13225;47.804;12.116;2022-08-19T12:03:57;25.00;99.90
25280;DHT22;13225;47.804;12.116;2022-08-19T12:06:32;24.80;99.90
25280;DHT22;13225;47.804;12.116;2022-08-19T12:09:03;24.70;99.90
25280;DHT22;13225;47.804;12.116;2022-08-19T12:11:30;24.40;99.90
25280;DHT22;13225;47.804;12.116;2022-08-19T12:16:25;24.30;99.90
25280;DHT22;13225;47.804;12.116;2022-08-19T12:18:52;23.90;99.90
25280;DHT22;13225;47.804;12.116;2022-08-19T12:21:22;24.20;99.90
25280;DHT22;13225;47.804;12.116;2022-08-19T12:23:50;24.00;99.90
25280;DHT22;13225;47.804;12.116;2022-08-19T12:26:17;23.90;99.90
25280;DHT22;13225;47.804;12.116;2022-08-19T12:28:43;23.80;99.90
25280;DHT22;13225;47.804;12.116;2022-08-19T12:31:10;23.90;99.90
25280;DHT22;13225;47.804;12.116;2022-08-19T12:33:40;24.00;99.90
25280;DHT22;13225;47.804;12.116;2022-08-19T12:36:09;23.70;99.90
25280;DHT22;13225;47.804;12.116;2022-08-19T12:38:36;23.80;99.90
25280;DHT22;13225;47.804;12.116;2022-08-19T12:41:02;23.50;99.90
25280;DHT22;13225;47.804;12.116;2022-08-19T12:43:35;23.80;99.90
25280;DHT22;13225;47.804;12.116;2022-08-19T12:46:05;24.20;99.90
25280;DHT22;13225;47.804;12.116;2022-08-19T12:48:32;25.00;99.90
25280;DHT22;13225;47.804;12.116;2022-08-19T12:50:58;25.40;99.90
25280;DHT22;13225;47.804;12.116;2022-08-19T12:53:24;25.10;99.90
25280;DHT22;13225;47.804;12.116;2022-08-19T12:55:59;24.70;99.90
25280;DHT22;13225;47.804;12.116;2022-08-19T12:58:26;24.50;99.90
25280;DHT22;13225;47.804;12.116;2022-08-19T13:00:52;24.30;99.90
25280;DHT22;13225;47.804;12.116;2022-08-19T13:03:18;24.10;99.90
25280;DHT22;13225;47.804;12.116;2022-08-19T13:05:44;23.90;99.90
25280;DHT22;13225;47.804;12.116;2022-08-19T13:08:09;24.10;99.90
25280;DHT22;13225;47.804;12.116;2022-08-19T13:10:36;23.90;99.90
25280;DHT22;13225;47.804;12.116;2022-08-19T13:13:05;23.80;99.90
25280;DHT22;13225;47.804;12.116;2022-08-19T13:15:37;23.70;99.90
25280;DHT22;13225;47.804;12.116;2022-08-19T13:18:05;23.80;99.90
25280;DHT22;13225;47.804;12.116;2022-08-19T13:20:31;23.70;99.90
25280;DHT22;13225;47.804;12.116;2022-08-19T13:22:57;23.40;99.90
25280;DHT22;13225;47.804;12.116;2022-08-19T13:25:23;23.50;99.90
25280;DHT22;13225;47.804;12.116;2022-08-19T13:27:50;23.60;99.90
25280;DHT22;13225;47.804;12.116;2022-08-19T13:30:17;23.60;99.90
25280;DHT22;13225;47.804;12.116;2022-08-19T13:33:02;23.60;99.90
25280;DHT22;13225;47.804;12.116;2022-08-19T13:38:06;23.10;99.90
25280;DHT22;13225;47.804;12.116;2022-08-19T13:40:33;22.80;99.90
25280;DHT22;13225;47.804;12.116;2022-08-19T13:43:03;22.70;99.90
25280;DHT22;13225;47.804;12.116;2022-08-19T13:45:30;22.70;99.90
25280;DHT22;13225;47.804;12.116;2022-08-19T13:47:59;22.50;99.90
25280;DHT22;13225;47.804;12.116;2022-08-19T13:50:29;22.50;99.90
25280;DHT22;13225;47.804;12.116;2022-08-19T13:52:56;22.40;99.90
25280;DHT22;13225;47.804;12.116;2022-08-19T13:55:23;22.40;99.90
25280;DHT22;13225;47.804;12.116;2022-08-19T13:57:57;22.40;99.90
25280;DHT22;13225;47.804;12.116;2022-08-19T14:00:24;22.30;99.90
25280;DHT22;13225;47.804;12.116;2022-08-19T14:02:54;22.30;99.90
25280;DHT22;13225;47.804;12.116;2022-08-19T14:05:20;22.40;99.90
25280;DHT22;13225;47.804;12.116;2022-08-19T14:07:46;22.40;99.90
25280;DHT22;13225;47.804;12.116;2022-08-19T14:10:14;22.60;99.90
25280;DHT22;13225;47.804;12.116;2022-08-19T14:12:40;22.60;99.90
25280;DHT22;13225;47.804;12.116;2022-08-19T14:15:08;22.70;99.90
25280;DHT22;13225;47.804;12.116;2022-08-19T14:17:37;22.80;99.90
25280;DHT22;13225;47.804;12.116;2022-08-19T14:20:05;22.90;99.90
25280;DHT22;13225;47.804;12.116;2022-08-19T14:22:38;22.80;99.90
25280;DHT22;13225;47.804;12.116;2022-08-19T14:25:07;22.70;99.90
25280;DHT22;13225;47.804;12.116;2022-08-19T14:27:34;22.90;99.90
25280;DHT22;13225;47.804;12.116;2022-08-19T14:30:01;23.00;99.90
25280;DHT22;13225;47.804;12.116;2022-08-19T14:32:27;22.90;99.90
25280;DHT22;13225;47.804;12.116;2022-08-19T14:34:53;22.90;99.90
25280;DHT22;13225;47.804;12.116;2022-08-19T14:37:20;22.80;99.90
25280;DHT22;13225;47.804;12.116;2022-08-19T14:39:48;22.70;99.90
25280;DHT22;13225;47.804;12.116;2022-08-19T14:42:14;22.60;99.90
25280;DHT22;13225;47.804;12.116;2022-08-19T14:44:40;22.60;99.90
25280;DHT22;13225;47.804;12.116;2022-08-19T14:47:06;22.40;99.90
25280;DHT22;13225;47.804;12.116;2022-08-19T14:49:33;22.30;99.90
25280;DHT22;13225;47.804;12.116;2022-08-19T14:52:01;22.30;99.90
25280;DHT22;13225;47.804;12.116;2022-08-19T14:54:28;22.10;99.90
25280;DHT22;13225;47.804;12.116;2022-08-19T14:56:55;22.20;99.90
25280;DHT22;13225;47.804;12.116;2022-08-19T14:59:21;21.90;99.90
25280;DHT22;13225;47.804;12.116;2022-08-19T15:01:47;21.90;99.90
25280;DHT22;13225;47.804;12.116;2022-08-19T15:04:12;21.90;99.90
25280;DHT22;13225;47.804;12.116;2022-08-19T15:06:39;21.90;99.90
25280;DHT22;13225;47.804;12.116;2022-08-19T15:09:05;21.70;99.90
25280;DHT22;13225;47.804;12.116;2022-08-19T15:11:31;21.70;99.90
25280;DHT22;13225;47.804;12.116;2022-08-19T15:13:59;21.60;99.90
25280;DHT22;13225;47.804;12.116;2022-08-19T15:16:27;21.60;99.90
25280;DHT22;13225;47.804;12.116;2022-08-19T15:18:56;21.60;99.90
25280;DHT22;13225;47.804;12.116;2022-08-19T15:21:23;21.60;99.90
25280;DHT22;13225;47.804;12.116;2022-08-19T15:23:51;21.60;99.90
25280;DHT22;13225;47.804;12.116;2022-08-19T15:26:19;21.40;99.90
25280;DHT22;13225;47.804;12.116;2022-08-19T15:28:45;21.40;99.90
25280;DHT22;13225;47.804;12.116;2022-08-19T15:31:12;21.30;99.90